KTCC/TCC METAR and TAF weather

Enter ICAO airport designator
Station Type Date Time Source
KTCC METAR 2020/12/05 23:53 UTC NOAA

KTCC 052353Z AUTO 05007KT 10SM CLR 08/M07 A3025 RMK AO2 SLP248 T00831072 10150 20083 53006


Station Type Date Time Source
KTCC Decoded METAR 2020/12/05 23:53 UTC NOAA

TUCUMCARI MUNICIPAL AIRPORT , NM, United States (KTCC) 35-11N 103-36W 1235M
Dec 05, 2020 - 06:53 PM EST / 2020.12.05 2353 UTC
Wind: from the NE (050 degrees) at 8 MPH (7 KT):0
Visibility: 10 mile(s):0
Sky conditions: clear
Temperature: 46.9 F (8.3 C)
Dew Point: 19.0 F (-7.2 C)
Relative Humidity: 32%
Pressure (altimeter): 30.25 in. Hg (1024 hPa)
Pressure tendency: 0.02 inches (0.6 hPa) higher than three hours ago
ob: KTCC 052353Z AUTO 05007KT 10SM CLR 08/M07 A3025 RMK AO2 SLP248 T00831072 10150 20083 53006
cycle: 0

Station Type Date Time Source
KTCC TAF 2020/12/05 18:24 UTC NOAA

TAF KTCC 051721Z 0518/0618 04015G22KT P6SM FEW200
FM052300 05012KT P6SM FEW200
FM060100 36006KT P6SM FEW200
FM060600 31005KT P6SM SKC

Example: see airport list